Time;durP1;ratioP1;P1;durP2;ratioP2;P2;SDS_P1;SDS_P2;PMS_P1;PMS_P2;Temp;Humidity;BMP_temperature;BMP_pressure;BME280_temperature;BME280_humidity;BME280_pressure;Samples;Min_cycle;Max_cycle;Signal;HPM_P1;HPM_P2
2022/09/28 00:02:25;;;;;;;0.60;0.60;;;;;;;6.73;94.99;98126.63;5072552;28;20056;-83
2022/09/28 00:04:52;;;;;;;0.60;0.60;;;;;;;6.76;95.18;98123.50;5075341;28;20132;-83
2022/09/28 00:07:19;;;;;;;0.60;0.60;;;;;;;6.71;95.38;98118.84;5092610;28;20502;-83
2022/09/28 00:09:46;;;;;;;0.60;0.60;;;;;;;6.69;95.43;98115.59;5092302;28;20488;-83
2022/09/28 00:12:13;;;;;;;0.60;0.60;;;;;;;6.68;95.55;98110.47;5092763;28;20488;-83
2022/09/28 00:14:42;;;;;;;0.60;0.60;;;;;;;6.68;95.62;98119.34;5092546;28;20046;-83
2022/09/28 00:17:10;;;;;;;0.60;0.60;;;;;;;6.68;95.44;98118.50;5092923;28;20051;-83
2022/09/28 00:19:39;;;;;;;0.50;0.50;;;;;;;6.70;95.52;98097.63;5074744;28;20048;-83
2022/09/28 00:22:06;;;;;;;0.60;0.60;;;;;;;6.69;95.20;98094.13;5092982;28;20052;-84
2022/09/28 00:24:32;;;;;;;0.60;0.60;;;;;;;6.70;95.40;98109.16;5092706;28;20044;-83
2022/09/28 00:27:01;;;;;;;0.60;0.60;;;;;;;6.70;95.26;98100.31;5092369;28;20113;-83
2022/09/28 00:29:33;;;;;;;0.60;0.60;;;;;;;6.71;95.23;98096.59;5092358;28;20047;-83
2022/09/28 00:32:03;;;;;;;0.60;0.60;;;;;;;6.72;95.33;98104.38;5092071;28;20078;-83
2022/09/28 00:34:37;;;;;;;0.60;0.60;;;;;;;6.75;95.54;98091.53;5092235;28;20051;-83
2022/09/28 00:37:05;;;;;;;0.55;0.55;;;;;;;6.78;95.41;98093.75;5092850;28;20485;-83
2022/09/28 00:39:33;;;;;;;0.60;0.60;;;;;;;6.79;95.29;98084.66;5085663;28;20503;-83
2022/09/28 00:42:01;;;;;;;0.60;0.60;;;;;;;6.81;95.29;98085.19;5066851;28;20048;-85
2022/09/28 00:44:36;;;;;;;0.60;0.60;;;;;;;6.81;95.53;98083.34;5074832;28;20048;-82
2022/09/28 00:47:09;;;;;;;0.60;0.60;;;;;;;6.80;95.50;98083.59;5072252;28;20055;-84
2022/09/28 00:49:44;;;;;;;0.60;0.60;;;;;;;6.79;95.59;98073.94;5053862;28;20068;-85
2022/09/28 00:52:15;;;;;;;0.63;0.63;;;;;;;6.76;95.68;98072.53;5054466;28;20052;-85
2022/09/28 00:54:45;;;;;;;0.60;0.60;;;;;;;6.75;95.57;98072.78;5072027;28;20549;-84
2022/09/28 00:57:12;;;;;;;0.50;0.50;;;;;;;6.78;95.76;98066.91;5037695;28;20071;-84
2022/09/28 00:59:40;;;;;;;0.60;0.60;;;;;;;6.80;95.59;98065.63;5054310;28;20044;-84
2022/09/28 01:02:09;;;;;;;0.50;0.50;;;;;;;6.80;95.81;98057.56;5072126;28;20119;-84
2022/09/28 01:04:37;;;;;;;0.60;0.60;;;;;;;6.81;95.65;98051.19;5037967;28;20075;-86
2022/09/28 01:07:07;;;;;;;0.60;0.60;;;;;;;6.81;95.69;98053.84;5051641;28;20060;-85
2022/09/28 01:09:37;;;;;;;0.60;0.60;;;;;;;6.81;95.70;98047.66;5040636;28;20499;-84
2022/09/28 01:12:05;;;;;;;0.60;0.60;;;;;;;6.79;95.54;98042.56;5040018;28;20060;-84
2022/09/28 01:14:32;;;;;;;0.60;0.60;;;;;;;6.79;95.57;98034.50;5060806;28;20515;-84
2022/09/28 01:17:08;;;;;;;0.60;0.60;;;;;;;6.78;95.37;98024.00;5036023;28;20245;-85
2022/09/28 01:20:06;;;;;;;0.60;0.60;;;;;;;6.76;95.40;98034.16;5033528;28;20480;-85
2022/09/28 01:23:11;;;;;;;0.60;0.60;;;;;;;6.77;95.36;98022.41;5051886;28;20044;-85
2022/09/28 01:25:59;;;;;;;0.60;0.60;;;;;;;6.73;95.44;98022.06;5060605;28;20102;-85
2022/09/28 01:28:29;;;;;;;0.60;0.60;;;;;;;6.76;95.58;98018.06;5092166;28;20085;-85
2022/09/28 01:31:02;;;;;;;0.60;0.60;;;;;;;6.78;95.56;98014.09;5091343;28;20063;-84
2022/09/28 01:34:09;;;;;;;0.60;0.60;;;;;;;6.80;95.57;98013.88;5063568;28;20049;-85
2022/09/28 01:36:42;;;;;;;0.60;0.60;;;;;;;6.78;95.57;98011.41;4970413;28;20059;-86
2022/09/28 01:39:13;;;;;;;0.60;0.60;;;;;;;6.79;95.55;98013.06;4923025;28;20564;-84
2022/09/28 01:41:43;;;;;;;0.60;0.60;;;;;;;6.79;95.39;98002.31;4938934;28;20410;-84
2022/09/28 01:44:14;;;;;;;0.60;0.60;;;;;;;6.76;95.32;98005.50;4955699;28;20065;-85
2022/09/28 01:46:43;;;;;;;0.70;0.70;;;;;;;6.76;95.36;98004.66;4938710;28;20097;-84
2022/09/28 01:49:29;;;;;;;0.60;0.60;;;;;;;6.77;95.69;97996.38;4954742;28;20050;-85
2022/09/28 01:52:01;;;;;;;0.60;0.60;;;;;;;6.77;95.46;97987.53;4938647;28;20505;-84
2022/09/28 01:54:46;;;;;;;0.52;0.52;;;;;;;6.75;95.30;97990.44;4954447;28;20518;-85
2022/09/28 01:57:21;;;;;;;0.60;0.60;;;;;;;6.75;95.21;97990.44;4954533;28;20055;-85
2022/09/28 02:00:09;;;;;;;0.60;0.60;;;;;;;6.72;95.36;97994.44;4938080;28;20058;-84
2022/09/28 02:02:52;;;;;;;0.60;0.60;;;;;;;6.69;95.26;97984.22;4940638;28;20070;-84
2022/09/28 02:05:34;;;;;;;0.60;0.60;;;;;;;6.71;95.30;97982.09;4973561;28;20134;-85
2022/09/28 02:08:24;;;;;;;0.60;0.60;;;;;;;6.71;95.39;97978.59;4973593;28;20101;-85
2022/09/28 02:10:59;;;;;;;0.60;0.60;;;;;;;6.69;95.55;97972.66;4921683;29;20108;-85
2022/09/28 02:13:36;;;;;;;0.65;0.65;;;;;;;6.70;95.12;97961.69;4935503;29;20059;-86
2022/09/28 02:16:26;;;;;;;0.60;0.60;;;;;;;6.63;95.36;97965.59;4950582;28;20070;-85
2022/09/28 02:18:53;;;;;;;0.60;0.60;;;;;;;6.58;95.55;97962.81;4954758;29;20062;-84
2022/09/28 02:21:31;;;;;;;0.60;0.60;;;;;;;6.59;95.61;97954.56;4955082;29;20051;-84
2022/09/28 02:24:05;;;;;;;0.60;0.60;;;;;;;6.58;95.60;97954.78;4938275;29;20051;-84
2022/09/28 02:26:39;;;;;;;0.60;0.60;;;;;;;6.57;96.07;97959.34;4938848;29;20047;-84
2022/09/28 02:29:07;;;;;;;0.70;0.70;;;;;;;6.59;96.03;97953.75;4970411;28;20047;-85
2022/09/28 02:31:34;;;;;;;0.60;0.60;;;;;;;6.58;96.05;97952.91;4954104;29;20063;-84
2022/09/28 02:34:02;;;;;;;0.60;0.60;;;;;;;6.54;95.87;97948.31;4972813;28;20077;-83
2022/09/28 02:36:30;;;;;;;0.60;0.60;;;;;;;6.58;96.01;97952.91;4957389;28;20050;-84
2022/09/28 02:38:57;;;;;;;0.70;0.70;;;;;;;6.60;96.10;97947.31;4957161;28;20053;-85
2022/09/28 02:41:42;;;;;;;0.60;0.60;;;;;;;6.57;95.88;97940.56;4957655;28;20589;-85
2022/09/28 02:44:34;;;;;;;0.60;0.60;;;;;;;6.58;95.69;97938.69;4957495;28;20057;-84
2022/09/28 02:47:32;;;;;;;0.60;0.60;;;;;;;6.57;95.79;97931.72;4966168;28;20146;-84
2022/09/28 02:50:18;;;;;;;0.60;0.60;;;;;;;6.55;96.03;97933.84;5020843;28;20067;-84
2022/09/28 02:53:13;;;;;;;0.60;0.60;;;;;;;6.53;95.63;97925.22;5021752;28;20049;-83
2022/09/28 02:55:59;;;;;;;0.63;0.63;;;;;;;6.50;95.55;97929.19;5054892;28;20817;-84
2022/09/28 02:58:43;;;;;;;0.60;0.60;;;;;;;6.51;95.59;97934.34;5036479;28;20107;-85
2022/09/28 03:01:26;;;;;;;0.60;0.60;;;;;;;6.53;95.67;97925.22;5028887;28;20132;-84
2022/09/28 03:04:10;;;;;;;0.50;0.50;;;;;;;6.54;95.80;97929.53;5056788;28;20487;-83
2022/09/28 03:06:46;;;;;;;0.70;0.70;;;;;;;6.53;95.85;97928.72;5074711;28;20048;-84
2022/09/28 03:09:21;;;;;;;0.60;0.60;;;;;;;6.57;95.63;97931.72;5039679;28;20052;-85
2022/09/28 03:12:00;;;;;;;0.70;0.70;;;;;;;6.58;95.78;97919.94;5073723;28;20052;-84
2022/09/28 03:14:27;;;;;;;0.60;0.60;;;;;;;6.60;95.60;97921.31;5039339;28;20045;-84
2022/09/28 03:16:56;;;;;;;0.60;0.60;;;;;;;6.60;95.56;97910.59;5035710;28;20076;-84
2022/09/28 03:19:28;;;;;;;0.60;0.60;;;;;;;6.62;95.49;97905.00;5053625;28;20048;-85
2022/09/28 03:21:55;;;;;;;0.60;0.60;;;;;;;6.58;95.29;97904.66;5047339;28;20518;-83
2022/09/28 03:24:22;;;;;;;0.60;0.60;;;;;;;6.60;95.44;97901.75;5079744;28;20051;-85
2022/09/28 03:26:49;;;;;;;0.60;0.60;;;;;;;6.59;95.28;97906.31;5060894;28;20071;-84
2022/09/28 03:29:19;;;;;;;0.60;0.60;;;;;;;6.57;95.29;97899.56;5038640;28;20100;-83
2022/09/28 03:31:50;;;;;;;0.60;0.60;;;;;;;6.51;95.27;97909.41;5065415;28;20139;-84
2022/09/28 03:34:18;;;;;;;0.60;0.60;;;;;;;6.50;95.54;97895.16;5064793;28;20177;-83
2022/09/28 03:36:51;;;;;;;0.60;0.60;;;;;;;6.55;95.37;97897.13;5066834;28;20071;-83
2022/09/28 03:39:18;;;;;;;0.60;0.60;;;;;;;6.55;95.36;97890.94;5085739;28;20044;-83
2022/09/28 03:41:45;;;;;;;0.60;0.60;;;;;;;6.57;95.54;97892.31;5082809;28;20141;-84
2022/09/28 03:44:12;;;;;;;0.60;0.60;;;;;;;6.55;95.75;97894.44;5070120;28;20082;-84
2022/09/28 03:46:40;;;;;;;0.60;0.60;;;;;;;6.61;95.80;97884.59;5072782;28;20391;-83
2022/09/28 03:49:08;;;;;;;0.60;0.60;;;;;;;6.66;95.78;97890.03;5065851;28;20048;-84
2022/09/28 03:51:36;;;;;;;0.60;0.60;;;;;;;6.70;95.73;97885.81;5046972;28;20041;-83
2022/09/28 03:54:03;;;;;;;0.60;0.60;;;;;;;6.73;95.59;97880.78;5064003;28;20473;-83
2022/09/28 03:56:30;;;;;;;0.60;0.60;;;;;;;6.73;95.30;97877.25;5047201;28;20063;-82
2022/09/28 03:58:57;;;;;;;0.60;0.60;;;;;;;6.71;95.48;97877.53;5081894;28;20522;-83
2022/09/28 04:01:25;;;;;;;0.60;0.60;;;;;;;6.68;95.03;97867.31;5063363;28;20529;-84
2022/09/28 04:03:54;;;;;;;0.60;0.60;;;;;;;6.64;94.86;97874.19;5047641;28;20124;-85
2022/09/28 04:06:23;;;;;;;0.60;0.60;;;;;;;6.63;94.95;97872.56;5069207;28;20044;-83
2022/09/28 04:08:55;;;;;;;0.60;0.60;;;;;;;6.60;95.01;97870.38;5074653;28;20047;-85
2022/09/28 04:11:23;;;;;;;0.60;0.60;;;;;;;6.66;95.10;97873.94;5073785;28;20486;-83
2022/09/28 04:13:50;;;;;;;0.60;0.60;;;;;;;6.66;95.14;97876.63;5068284;28;20045;-83
2022/09/28 04:16:17;;;;;;;0.60;0.60;;;;;;;6.70;95.07;97883.94;5054321;28;20044;-86
2022/09/28 04:19:04;;;;;;;0.60;0.60;;;;;;;6.69;95.12;97873.47;5061777;28;20052;-85
2022/09/28 04:21:37;;;;;;;0.60;0.60;;;;;;;6.65;95.13;97865.09;5093909;28;20051;-85
2022/09/28 04:24:10;;;;;;;0.60;0.60;;;;;;;6.68;95.30;97866.47;5078506;28;20055;-84
2022/09/28 04:26:37;;;;;;;0.60;0.60;;;;;;;6.69;95.13;97868.09;5094051;28;20048;-84
2022/09/28 04:29:17;;;;;;;0.60;0.60;;;;;;;6.73;95.28;97863.84;5074386;28;20603;-84
2022/09/28 04:31:53;;;;;;;0.60;0.60;;;;;;;6.76;95.18;97857.19;5057644;28;20521;-87
2022/09/28 04:34:29;;;;;;;0.60;0.60;;;;;;;6.76;94.90;97849.97;5079276;28;20048;-85
2022/09/28 04:37:02;;;;;;;0.70;0.70;;;;;;;6.79;94.95;97852.16;5093403;28;20406;-85
2022/09/28 04:39:31;;;;;;;0.60;0.60;;;;;;;6.76;94.29;97851.81;5091984;28;20478;-85
2022/09/28 04:42:09;;;;;;;0.60;0.60;;;;;;;6.75;94.60;97853.69;5093066;28;20047;-84
2022/09/28 04:44:37;;;;;;;0.60;0.60;;;;;;;6.77;94.48;97859.63;5059327;28;20379;-85
2022/09/28 04:47:08;;;;;;;0.60;0.60;;;;;;;6.78;94.74;97853.19;5075438;28;20080;-83
2022/09/28 04:49:54;;;;;;;0.60;0.60;;;;;;;6.74;94.65;97844.03;5064212;28;20044;-85
2022/09/28 04:52:29;;;;;;;0.60;0.60;;;;;;;6.80;94.79;97836.88;5061421;28;20075;-85
2022/09/28 04:54:56;;;;;;;0.60;0.60;;;;;;;6.79;94.69;97843.31;5021364;28;20116;-85
2022/09/28 04:57:24;;;;;;;0.60;0.60;;;;;;;6.71;94.61;97841.88;5043433;28;20063;-85
2022/09/28 04:59:51;;;;;;;0.60;0.60;;;;;;;6.72;95.16;97846.97;5050851;28;20060;-83
2022/09/28 05:02:19;;;;;;;0.60;0.60;;;;;;;6.75;95.31;97845.66;5039013;28;20491;-85
2022/09/28 05:05:05;;;;;;;0.65;0.65;;;;;;;6.80;95.56;97836.88;5051637;28;20052;-85
2022/09/28 05:07:35;;;;;;;0.60;0.60;;;;;;;6.85;95.51;97834.25;5052889;28;20051;-84
2022/09/28 05:10:05;;;;;;;0.60;0.60;;;;;;;6.86;95.54;97825.13;5033880;28;20052;-85
2022/09/28 05:12:32;;;;;;;0.60;0.60;;;;;;;6.81;95.75;97830.44;5043171;28;20411;-87
2022/09/28 05:14:59;;;;;;;0.60;0.60;;;;;;;6.81;95.99;97828.59;5036113;28;20048;-87
2022/09/28 05:17:29;;;;;;;0.60;0.60;;;;;;;6.79;96.40;97829.91;5036875;28;20056;-84
2022/09/28 05:20:09;;;;;;;0.60;0.60;;;;;;;6.80;96.53;97828.81;5063053;28;20418;-83
2022/09/28 05:22:36;;;;;;;0.60;0.60;;;;;;;6.83;96.66;97821.06;5017271;28;20052;-84
2022/09/28 05:25:06;;;;;;;0.60;0.60;;;;;;;6.87;97.06;97827.56;5030960;28;20144;-86
2022/09/28 05:27:46;;;;;;;0.60;0.60;;;;;;;6.88;96.71;97826.50;5033152;28;20045;-85
2022/09/28 05:30:34;;;;;;;0.60;0.60;;;;;;;6.87;96.67;97826.78;5034022;28;20064;-85
2022/09/28 05:33:27;;;;;;;0.60;0.60;;;;;;;6.88;96.80;97818.47;5044793;28;20458;-82
2022/09/28 05:36:10;;;;;;;0.60;0.60;;;;;;;6.91;97.05;97822.50;5049908;28;20287;-84
2022/09/28 05:38:37;;;;;;;0.60;0.60;;;;;;;6.97;96.84;97824.22;5033139;28;20140;-84
2022/09/28 05:41:05;;;;;;;0.60;0.60;;;;;;;7.01;97.13;97816.47;5034433;28;20086;-86
2022/09/28 05:43:33;;;;;;;0.60;0.60;;;;;;;7.05;96.95;97801.50;5040240;28;20037;-87
2022/09/28 05:46:04;;;;;;;0.60;0.60;;;;;;;7.09;96.84;97805.28;5032782;28;20041;-86
2022/09/28 05:48:35;;;;;;;0.60;0.60;;;;;;;7.13;96.68;97803.72;5031507;28;20069;-84
2022/09/28 05:51:02;;;;;;;0.60;0.60;;;;;;;7.11;96.80;97797.81;5034214;28;20151;-88
2022/09/28 05:53:29;;;;;;;0.60;0.60;;;;;;;7.17;96.60;97804.88;5043170;28;20056;-86
2022/09/28 05:55:58;;;;;;;0.60;0.60;;;;;;;7.19;96.63;97799.22;5035826;28;20139;-86
2022/09/28 05:58:26;;;;;;;0.60;0.60;;;;;;;7.12;96.30;97805.63;5041662;28;20044;-87
2022/09/28 06:00:55;;;;;;;0.60;0.60;;;;;;;7.15;96.54;97806.97;5031214;28;20044;-83
2022/09/28 06:03:23;;;;;;;0.50;0.50;;;;;;;7.24;96.34;97799.28;5069947;28;20106;-87
2022/09/28 06:05:50;;;;;;;0.60;0.60;;;;;;;7.31;96.27;97795.34;5022499;28;20539;-88
2022/09/28 06:08:18;;;;;;;0.60;0.60;;;;;;;7.38;96.30;97789.78;5034238;28;20431;-84
2022/09/28 06:10:58;;;;;;;0.60;0.60;;;;;;;7.48;96.10;97794.44;5050274;28;20055;-85
2022/09/28 06:13:26;;;;;;;0.60;0.60;;;;;;;7.51;96.14;97792.03;5034248;28;20082;-89
2022/09/28 06:15:53;;;;;;;0.60;0.60;;;;;;;7.60;95.69;97797.78;5034294;28;20056;-84
2022/09/28 06:18:20;;;;;;;0.60;0.60;;;;;;;7.59;95.50;97796.16;5035384;28;20045;-84
2022/09/28 06:21:13;;;;;;;0.60;0.60;;;;;;;7.63;95.42;97794.59;5015056;28;20100;-83
2022/09/28 06:23:43;;;;;;;0.60;0.60;;;;;;;7.69;95.13;97796.25;4995144;28;20060;-82
2022/09/28 06:26:17;;;;;;;0.60;0.60;;;;;;;7.71;94.79;97791.44;5015052;28;20053;-84
2022/09/28 06:28:48;;;;;;;0.60;0.60;;;;;;;7.69;94.17;97790.88;5020898;28;20048;-82
2022/09/28 06:31:16;;;;;;;0.50;0.50;;;;;;;7.64;93.82;97798.06;4680465;28;9999840;-82
2022/09/28 06:33:47;;;;;;;0.60;0.60;;;;;;;7.59;93.99;97798.81;5011050;28;20058;-84
2022/09/28 06:36:17;;;;;;;0.60;0.60;;;;;;;7.52;93.91;97795.53;5028752;28;20045;-82
2022/09/28 06:38:46;;;;;;;0.60;0.60;;;;;;;7.50;93.79;97800.38;5028348;28;20119;-82
2022/09/28 06:41:13;;;;;;;0.60;0.60;;;;;;;7.59;93.86;97796.94;4994765;28;20100;-84
2022/09/28 06:43:44;;;;;;;0.60;0.60;;;;;;;7.64;93.87;97790.81;5027116;28;20562;-83
2022/09/28 06:46:15;;;;;;;0.70;0.70;;;;;;;7.72;94.08;97800.28;5031991;28;20172;-83
2022/09/28 06:48:48;;;;;;;0.60;0.60;;;;;;;7.78;93.66;97791.22;5007806;28;20066;-82
2022/09/28 06:51:35;;;;;;;0.60;0.60;;;;;;;7.82;93.15;97795.84;4991869;28;20674;-83
2022/09/28 06:54:17;;;;;;;0.70;0.70;;;;;;;7.79;93.11;97796.31;5008601;28;20053;-82
2022/09/28 06:56:56;;;;;;;0.60;0.60;;;;;;;7.74;93.21;97793.59;5008173;28;20100;-82
2022/09/28 06:59:25;;;;;;;0.60;0.60;;;;;;;7.80;93.10;97800.66;5067421;28;20048;-81
2022/09/28 07:01:53;;;;;;;0.60;0.60;;;;;;;7.90;92.90;97791.88;5035166;28;20529;-82
2022/09/28 07:04:42;;;;;;;0.60;0.60;;;;;;;7.93;92.57;97779.81;5069970;28;20055;-83
2022/09/28 07:07:30;;;;;;;0.60;0.60;;;;;;;8.04;92.61;97778.78;5070556;28;20090;-83
2022/09/28 07:10:10;;;;;;;0.60;0.60;;;;;;;8.02;92.19;97779.03;5035561;28;20044;-84
2022/09/28 07:13:01;;;;;;;0.60;0.60;;;;;;;8.02;92.55;97772.84;5069596;28;20102;-83
2022/09/28 07:15:42;;;;;;;0.60;0.60;;;;;;;8.08;92.13;97777.22;5052377;28;20135;-84
2022/09/28 07:18:12;;;;;;;0.60;0.60;;;;;;;7.99;91.66;97779.56;5051731;28;20048;-84
2022/09/28 07:20:42;;;;;;;0.60;0.60;;;;;;;7.95;91.65;97786.53;5044665;28;20049;-84
2022/09/28 07:23:19;;;;;;;0.60;0.60;;;;;;;8.02;91.94;97786.28;5043300;28;20040;-86
2022/09/28 07:26:19;;;;;;;0.60;0.60;;;;;;;8.07;91.40;97782.84;5038493;28;20048;-83
2022/09/28 07:29:09;;;;;;;0.60;0.60;;;;;;;8.04;91.16;97787.66;5059551;28;20040;-84
2022/09/28 07:31:55;;;;;;;0.60;0.60;;;;;;;8.10;91.01;97785.84;5056197;28;20052;-86
2022/09/28 07:34:28;;;;;;;0.60;0.60;;;;;;;8.19;90.86;97795.03;5069762;28;20603;-83
2022/09/28 07:37:18;;;;;;;0.60;0.60;;;;;;;8.13;90.17;97790.69;4994338;28;20453;-85
2022/09/28 07:42:37;;;;;;;0.60;0.60;;;;;;;8.07;90.74;97783.66;4984197;28;20517;-84
2022/09/28 07:45:05;;;;;;;0.70;0.70;;;;;;;8.25;90.87;97788.63;4982160;28;20050;-86
2022/09/28 07:47:32;;;;;;;0.70;0.70;;;;;;;8.40;90.82;97787.13;4971480;28;20105;-83
2022/09/28 07:50:27;;;;;;;0.70;0.70;;;;;;;8.51;90.86;97779.91;4971565;28;20101;-84
2022/09/28 07:52:59;;;;;;;0.60;0.60;;;;;;;8.55;89.97;97772.94;4979113;28;20050;-84
2022/09/28 07:55:38;;;;;;;0.70;0.70;;;;;;;8.53;89.32;97775.09;4971709;28;20057;-84
2022/09/28 07:58:06;;;;;;;0.70;0.70;;;;;;;8.38;88.21;97779.31;4985989;28;20141;-84
2022/09/28 08:00:47;;;;;;;0.70;0.70;;;;;;;8.26;88.45;97767.94;4970513;28;20042;-83
2022/09/28 08:03:17;;;;;;;0.60;0.60;;;;;;;8.35;89.14;97770.94;4970936;28;20046;-84
2022/09/28 08:05:46;;;;;;;0.60;0.60;;;;;;;8.40;88.87;97768.28;4981182;28;20492;-83
2022/09/28 08:08:13;;;;;;;0.60;0.60;;;;;;;8.49;88.87;97764.06;4972442;28;20045;-79
2022/09/28 08:10:42;;;;;;;0.60;0.60;;;;;;;8.49;88.16;97765.94;4995714;28;20046;-83
2022/09/28 08:13:44;;;;;;;0.60;0.60;;;;;;;8.62;87.68;97754.69;4981007;28;20058;-83
2022/09/28 08:16:19;;;;;;;0.60;0.60;;;;;;;8.73;87.35;97758.25;4978610;28;20432;-82
2022/09/28 08:18:53;;;;;;;0.60;0.60;;;;;;;8.86;87.37;97763.13;4993000;28;20196;-82
2022/09/28 08:24:07;;;;;;;0.60;0.60;;;;;;;9.00;87.18;97772.34;5013247;28;20073;-84
2022/09/28 08:26:35;;;;;;;0.60;0.60;;;;;;;9.08;87.04;97776.41;4979611;28;20042;-83
2022/09/28 08:29:02;;;;;;;0.60;0.60;;;;;;;9.08;86.69;97771.81;4990945;28;20533;-85
2022/09/28 08:31:51;;;;;;;0.60;0.60;;;;;;;9.00;85.90;97774.22;4984232;28;20061;-87
2022/09/28 08:34:38;;;;;;;0.60;0.60;;;;;;;8.95;86.56;97774.22;4991966;28;20053;-84
2022/09/28 08:37:19;;;;;;;0.60;0.60;;;;;;;9.01;86.67;97763.19;4990763;28;20045;-85
2022/09/28 08:40:18;;;;;;;0.60;0.60;;;;;;;9.20;86.64;97766.19;5012284;28;20064;-85
2022/09/28 08:43:21;;;;;;;0.60;0.60;;;;;;;9.38;85.86;97751.44;4989003;28;20138;-82
2022/09/28 08:46:22;;;;;;;0.50;0.50;;;;;;;9.25;84.96;97751.94;4997540;28;20200;-84
2022/09/28 08:49:24;;;;;;;0.50;0.50;;;;;;;8.99;84.83;97757.28;5011876;28;20049;-84
2022/09/28 08:52:22;;;;;;;0.60;0.60;;;;;;;8.83;85.66;97758.28;5025276;28;20132;-84
2022/09/28 08:55:30;;;;;;;0.60;0.60;;;;;;;8.73;85.54;97755.56;5053565;28;20048;-84
2022/09/28 08:58:07;;;;;;;0.60;0.60;;;;;;;8.79;85.81;97757.22;5051935;28;20053;-86
2022/09/28 09:00:41;;;;;;;0.60;0.60;;;;;;;8.99;85.49;97757.28;5033539;28;20040;-88
2022/09/28 09:03:12;;;;;;;0.60;0.60;;;;;;;9.11;84.98;97759.72;5019749;28;20121;-84
2022/09/28 09:05:50;;;;;;;;;;;;;;;9.13;84.43;97764.84;5045605;28;20052;-85
2022/09/28 09:08:48;;;;;;;0.60;0.60;;;;;;;9.07;84.39;97770.22;5021237;28;19925;-86
2022/09/28 09:11:44;;;;;;;0.60;0.60;;;;;;;9.20;84.03;97765.41;5017461;28;20851;-85
2022/09/28 09:14:33;;;;;;;0.60;0.60;;;;;;;9.37;83.28;97770.53;5030181;28;20059;-85
2022/09/28 09:17:32;;;;;;;0.70;0.70;;;;;;;9.47;82.91;97766.00;5030374;28;20052;-85
2022/09/28 09:20:55;;;;;;;0.70;0.70;;;;;;;9.59;81.86;97765.72;5032842;28;20141;-86
2022/09/28 09:23:38;;;;;;;0.50;0.50;;;;;;;9.57;82.46;97767.91;5030774;28;20664;-85
2022/09/28 09:26:19;;;;;;;0.60;0.60;;;;;;;9.48;82.14;97767.59;5029651;28;20103;-86
2022/09/28 09:29:28;;;;;;;0.60;0.60;;;;;;;9.47;82.50;97770.53;5030405;28;20069;-83
2022/09/28 09:32:16;;;;;;;0.60;0.60;;;;;;;9.38;82.57;97772.97;5007585;28;20050;-83
2022/09/28 09:35:11;;;;;;;0.60;0.60;;;;;;;9.30;83.06;97776.19;5014471;28;20048;-86
2022/09/28 09:38:08;;;;;;;0.60;0.60;;;;;;;9.14;83.14;97774.53;4978588;28;20046;-84
2022/09/28 09:41:15;;;;;;;0.70;0.70;;;;;;;9.10;83.18;97779.63;4969060;28;20045;-83
2022/09/28 09:44:04;;;;;;;0.60;0.60;;;;;;;9.10;83.41;97775.06;4991547;28;20045;-83
2022/09/28 09:47:06;;;;;;;0.60;0.60;;;;;;;9.09;83.33;97772.66;4994400;28;20129;-83
2022/09/28 09:49:49;;;;;;;0.60;0.60;;;;;;;9.00;83.52;97776.91;4956815;28;20601;-82
2022/09/28 09:52:28;;;;;;;0.60;0.60;;;;;;;8.94;83.63;97772.56;4982321;28;20051;-83
2022/09/28 09:55:03;;;;;;;0.70;0.70;;;;;;;8.95;83.85;97774.22;4946617;28;20065;-84
2022/09/28 09:57:56;;;;;;;0.60;0.60;;;;;;;9.05;83.78;97785.00;4952667;28;20169;-85
2022/09/28 10:00:33;;;;;;;0.60;0.60;;;;;;;9.16;83.81;97781.25;4950415;28;20054;-85
2022/09/28 10:03:20;;;;;;;0.60;0.60;;;;;;;9.23;83.40;97786.41;4972871;28;20414;-85
2022/09/28 10:05:53;;;;;;;0.60;0.60;;;;;;;9.18;82.97;97775.63;4977402;28;20089;-84
2022/09/28 10:08:22;;;;;;;0.60;0.60;;;;;;;9.15;82.83;97786.91;4989044;28;20505;-84
2022/09/28 10:11:01;;;;;;;0.60;0.60;;;;;;;9.06;82.92;97783.91;4973945;28;20046;-85
2022/09/28 10:13:31;;;;;;;0.60;0.60;;;;;;;9.04;83.46;97778.81;4958020;28;20101;-84
2022/09/28 10:16:02;;;;;;;0.60;0.60;;;;;;;9.00;83.53;97780.41;5010590;28;20044;-83
2022/09/28 10:18:35;;;;;;;0.60;0.60;;;;;;;8.90;84.08;97778.47;5013693;28;20508;-83
2022/09/28 10:21:22;;;;;;;0.60;0.60;;;;;;;8.84;83.93;97779.56;5013517;28;20049;-83
2022/09/28 10:24:27;;;;;;;0.60;0.60;;;;;;;8.80;84.29;97786.50;5014794;28;20061;-84
2022/09/28 10:26:58;;;;;;;0.60;0.60;;;;;;;8.80;84.30;97783.03;5013278;28;20461;-82
2022/09/28 10:29:25;;;;;;;0.60;0.60;;;;;;;8.86;84.20;97768.50;4993581;28;20096;-84
2022/09/28 10:31:53;;;;;;;0.60;0.60;;;;;;;8.90;84.07;97775.00;5041440;28;20048;-85
2022/09/28 10:34:28;;;;;;;0.70;0.70;;;;;;;8.93;84.29;97779.84;5034569;28;20053;-83
2022/09/28 10:37:04;;;;;;;0.60;0.60;;;;;;;8.90;84.08;97777.69;5052450;28;20063;-84
2022/09/28 10:39:54;;;;;;;0.60;0.60;;;;;;;8.93;83.81;97779.84;5034359;28;20507;-83
2022/09/28 10:42:29;;;;;;;0.60;0.60;;;;;;;8.94;83.83;97778.78;5042562;28;20060;-84
2022/09/28 10:45:04;;;;;;;0.60;0.60;;;;;;;8.97;83.76;97772.88;5037898;28;20140;-85
2022/09/28 10:47:34;;;;;;;0.68;0.68;;;;;;;9.00;83.59;97774.22;5020666;28;20071;-84
2022/09/28 10:50:19;;;;;;;0.60;0.60;;;;;;;9.02;83.17;97775.56;5039925;28;20051;-85
2022/09/28 10:52:48;;;;;;;0.60;0.60;;;;;;;8.94;83.08;97768.03;4979316;28;20532;-84
2022/09/28 10:56:02;;;;;;;0.60;0.60;;;;;;;8.99;83.18;97769.91;5001573;28;20049;-84
2022/09/28 10:58:40;;;;;;;0.60;0.60;;;;;;;8.96;82.65;97771.22;5014175;28;20053;-84
2022/09/28 11:01:21;;;;;;;0.60;0.60;;;;;;;9.00;82.45;97775.03;5016066;28;20555;-83
2022/09/28 11:04:06;;;;;;;0.60;0.60;;;;;;;8.95;82.51;97774.22;5014216;28;20808;-85
2022/09/28 11:06:39;;;;;;;0.60;0.60;;;;;;;8.92;82.79;97764.78;4982917;28;20510;-85
2022/09/28 11:09:29;;;;;;;0.60;0.60;;;;;;;9.20;82.48;97773.47;4980903;28;20049;-84
2022/09/28 11:12:04;;;;;;;0.55;0.55;;;;;;;9.26;81.91;97777.78;5011037;28;20046;-84
2022/09/28 11:14:38;;;;;;;0.60;0.60;;;;;;;9.38;81.48;97772.97;4998847;28;20512;-84
2022/09/28 11:17:26;;;;;;;0.60;0.60;;;;;;;9.40;80.67;97781.59;4994720;28;20053;-84
2022/09/28 11:19:55;;;;;;;0.50;0.50;;;;;;;9.35;80.51;97786.97;5011509;28;20076;-84
2022/09/28 11:22:35;;;;;;;0.60;0.60;;;;;;;9.30;80.41;97789.66;4978745;28;20136;-85
2022/09/28 11:25:21;;;;;;;0.60;0.60;;;;;;;9.40;80.54;97795.06;5019475;28;20598;-84
2022/09/28 11:27:51;;;;;;;0.60;0.60;;;;;;;9.42;80.55;97789.38;5061525;28;20050;-85
2022/09/28 11:30:23;;;;;;;0.60;0.60;;;;;;;9.37;80.25;97792.91;5039793;28;20087;-84
2022/09/28 11:33:18;;;;;;;0.57;0.57;;;;;;;9.20;80.38;97789.63;5038715;28;20045;-87
2022/09/28 11:36:12;;;;;;;0.60;0.60;;;;;;;9.17;80.63;97800.94;5046022;28;20052;-85
2022/09/28 11:39:01;;;;;;;0.60;0.60;;;;;;;9.20;80.78;97800.41;5022073;28;20053;-85
2022/09/28 11:41:53;;;;;;;0.50;0.50;;;;;;;9.23;81.08;97803.34;5048644;28;20407;-85
2022/09/28 11:44:37;;;;;;;0.60;0.60;;;;;;;9.27;80.81;97796.38;5023656;28;20053;-86
2022/09/28 11:47:36;;;;;;;0.60;0.60;;;;;;;9.21;80.73;97793.94;5036896;28;20438;-84
2022/09/28 11:50:18;;;;;;;0.52;0.52;;;;;;;9.16;80.86;97797.41;5005278;28;20049;-86
2022/09/28 11:53:21;;;;;;;0.60;0.60;;;;;;;9.25;80.84;97795.81;5045907;28;20077;-85
2022/09/28 11:56:02;;;;;;;0.57;0.57;;;;;;;9.18;81.02;97795.25;4934843;28;20330;-84
2022/09/28 11:58:47;;;;;;;0.60;0.60;;;;;;;9.11;80.94;97800.91;4947560;28;20732;-84
2022/09/28 12:01:18;;;;;;;0.60;0.60;;;;;;;9.09;81.09;97803.06;4952939;28;20047;-84
2022/09/28 12:04:15;;;;;;;0.60;0.60;;;;;;;9.10;81.41;97810.03;4938780;29;20070;-84
2022/09/28 12:07:24;;;;;;;0.55;0.55;;;;;;;9.11;81.29;97809.00;4952726;28;20166;-82
2022/09/28 12:10:09;;;;;;;0.60;0.60;;;;;;;9.05;81.05;97803.84;4929460;28;20078;-84
2022/09/28 12:12:44;;;;;;;0.60;0.60;;;;;;;9.01;80.75;97806.22;4939620;28;20051;-84
2022/09/28 12:15:19;;;;;;;;;;;;;;;9.02;80.89;97807.06;4939599;28;20509;-84
2022/09/28 12:17:53;;;;;;;0.60;0.60;;;;;;;9.05;80.94;97801.16;4966282;28;19932;-85
2022/09/28 12:20:27;;;;;;;0.60;0.60;;;;;;;9.11;80.58;97806.31;4955950;28;20629;-85
2022/09/28 12:23:16;;;;;;;0.60;0.60;;;;;;;9.15;80.80;97808.47;4945170;29;20051;-85
2022/09/28 12:25:47;;;;;;;0.60;0.60;;;;;;;9.16;80.52;97805.47;4971047;28;20442;-86
2022/09/28 12:28:32;;;;;;;0.60;0.60;;;;;;;9.14;80.38;97804.13;4952539;29;20142;-85
2022/09/28 12:31:14;;;;;;;0.60;0.60;;;;;;;9.07;80.04;97815.16;4964287;28;20128;-87
2022/09/28 12:33:45;;;;;;;0.50;0.50;;;;;;;9.12;80.10;97807.09;5024770;28;20076;-85
2022/09/28 12:36:29;;;;;;;0.50;0.50;;;;;;;9.12;80.08;97804.41;5040143;28;20053;-84